sensor_id;sensor_type;location;lat;lon;timestamp;temperature;humidity
7700;DHT22;3892;47.794;19.126;2023-04-25T00:01:13;19.10;44.90
7700;DHT22;3892;47.794;19.126;2023-04-25T00:03:41;19.20;44.90
7700;DHT22;3892;47.794;19.126;2023-04-25T00:06:09;19.10;44.80
7700;DHT22;3892;47.794;19.126;2023-04-25T00:08:38;19.10;44.80
7700;DHT22;3892;47.794;19.126;2023-04-25T00:11:06;19.10;44.80
7700;DHT22;3892;47.794;19.126;2023-04-25T00:13:34;19.10;44.70
7700;DHT22;3892;47.794;19.126;2023-04-25T00:16:02;19.10;44.80
7700;DHT22;3892;47.794;19.126;2023-04-25T00:18:32;18.90;44.90
7700;DHT22;3892;47.794;19.126;2023-04-25T00:21:00;18.90;44.80
7700;DHT22;3892;47.794;19.126;2023-04-25T00:23:29;18.90;44.80
7700;DHT22;3892;47.794;19.126;2023-04-25T00:25:57;18.90;44.70
7700;DHT22;3892;47.794;19.126;2023-04-25T00:28:25;18.90;44.60
7700;DHT22;3892;47.794;19.126;2023-04-25T00:30:53;18.90;44.40
7700;DHT22;3892;47.794;19.126;2023-04-25T00:33:21;18.90;44.20
7700;DHT22;3892;47.794;19.126;2023-04-25T00:35:51;18.90;44.10
7700;DHT22;3892;47.794;19.126;2023-04-25T00:38:19;18.80;44.10
7700;DHT22;3892;47.794;19.126;2023-04-25T00:40:47;18.80;44.00
7700;DHT22;3892;47.794;19.126;2023-04-25T00:43:15;18.80;43.90
7700;DHT22;3892;47.794;19.126;2023-04-25T00:45:43;18.80;43.70
7700;DHT22;3892;47.794;19.126;2023-04-25T00:48:12;18.80;43.70
7700;DHT22;3892;47.794;19.126;2023-04-25T00:50:41;18.70;43.50
7700;DHT22;3892;47.794;19.126;2023-04-25T00:53:11;18.60;43.60
7700;DHT22;3892;47.794;19.126;2023-04-25T00:55:39;18.60;43.60
7700;DHT22;3892;47.794;19.126;2023-04-25T00:58:08;18.60;43.70
7700;DHT22;3892;47.794;19.126;2023-04-25T01:00:36;18.60;43.80
7700;DHT22;3892;47.794;19.126;2023-04-25T01:03:04;18.60;43.90
7700;DHT22;3892;47.794;19.126;2023-04-25T01:05:32;18.60;44.00
7700;DHT22;3892;47.794;19.126;2023-04-25T01:08:00;18.60;44.10
7700;DHT22;3892;47.794;19.126;2023-04-25T01:10:30;18.50;44.20
7700;DHT22;3892;47.794;19.126;2023-04-25T01:12:58;18.60;44.20
7700;DHT22;3892;47.794;19.126;2023-04-25T01:15:26;18.50;44.30
7700;DHT22;3892;47.794;19.126;2023-04-25T01:17:54;18.50;44.40
7700;DHT22;3892;47.794;19.126;2023-04-25T01:20:23;18.50;44.50
7700;DHT22;3892;47.794;19.126;2023-04-25T01:22:53;18.50;44.50
7700;DHT22;3892;47.794;19.126;2023-04-25T01:25:22;18.50;44.50
7700;DHT22;3892;47.794;19.126;2023-04-25T01:27:50;18.50;44.40
7700;DHT22;3892;47.794;19.126;2023-04-25T01:30:18;18.50;44.40
7700;DHT22;3892;47.794;19.126;2023-04-25T01:32:47;18.40;44.40
7700;DHT22;3892;47.794;19.126;2023-04-25T01:35:15;18.40;44.30
7700;DHT22;3892;47.794;19.126;2023-04-25T01:37:44;18.50;44.40
7700;DHT22;3892;47.794;19.126;2023-04-25T01:40:13;18.50;44.30
7700;DHT22;3892;47.794;19.126;2023-04-25T01:42:43;18.50;44.20
7700;DHT22;3892;47.794;19.126;2023-04-25T01:45:12;18.50;44.20
7700;DHT22;3892;47.794;19.126;2023-04-25T01:47:40;18.60;44.00
7700;DHT22;3892;47.794;19.126;2023-04-25T01:50:10;18.50;44.10
7700;DHT22;3892;47.794;19.126;2023-04-25T01:52:38;18.50;44.00
7700;DHT22;3892;47.794;19.126;2023-04-25T01:55:07;18.40;44.00
7700;DHT22;3892;47.794;19.126;2023-04-25T01:57:37;18.40;44.10
7700;DHT22;3892;47.794;19.126;2023-04-25T02:00:06;18.40;44.20
7700;DHT22;3892;47.794;19.126;2023-04-25T02:02:35;18.40;44.10
7700;DHT22;3892;47.794;19.126;2023-04-25T02:05:04;18.30;44.10
7700;DHT22;3892;47.794;19.126;2023-04-25T02:07:32;18.30;44.00
7700;DHT22;3892;47.794;19.126;2023-04-25T02:10:00;18.30;43.90
7700;DHT22;3892;47.794;19.126;2023-04-25T02:12:29;18.30;43.90
7700;DHT22;3892;47.794;19.126;2023-04-25T02:14:58;18.30;43.90
7700;DHT22;3892;47.794;19.126;2023-04-25T02:17:27;18.30;43.90
7700;DHT22;3892;47.794;19.126;2023-04-25T02:19:55;18.40;43.90
7700;DHT22;3892;47.794;19.126;2023-04-25T02:22:23;18.40;43.70
7700;DHT22;3892;47.794;19.126;2023-04-25T02:24:51;18.30;43.70
7700;DHT22;3892;47.794;19.126;2023-04-25T02:27:19;18.30;43.70
7700;DHT22;3892;47.794;19.126;2023-04-25T02:29:47;18.30;43.70
7700;DHT22;3892;47.794;19.126;2023-04-25T02:32:16;18.30;43.70
7700;DHT22;3892;47.794;19.126;2023-04-25T02:34:44;18.10;43.60
7700;DHT22;3892;47.794;19.126;2023-04-25T02:37:12;18.10;43.60
7700;DHT22;3892;47.794;19.126;2023-04-25T02:39:40;18.20;43.60
7700;DHT22;3892;47.794;19.126;2023-04-25T02:42:08;18.20;43.50
7700;DHT22;3892;47.794;19.126;2023-04-25T02:44:36;18.20;43.30
7700;DHT22;3892;47.794;19.126;2023-04-25T02:47:04;18.30;43.30
7700;DHT22;3892;47.794;19.126;2023-04-25T02:49:34;18.30;43.30
7700;DHT22;3892;47.794;19.126;2023-04-25T02:52:02;18.40;43.10
7700;DHT22;3892;47.794;19.126;2023-04-25T02:54:30;18.40;43.00
7700;DHT22;3892;47.794;19.126;2023-04-25T02:56:58;18.40;42.80
7700;DHT22;3892;47.794;19.126;2023-04-25T02:59:26;18.50;42.60
7700;DHT22;3892;47.794;19.126;2023-04-25T03:01:54;18.50;42.50
7700;DHT22;3892;47.794;19.126;2023-04-25T03:04:23;18.50;42.20
7700;DHT22;3892;47.794;19.126;2023-04-25T03:06:53;18.40;42.00
7700;DHT22;3892;47.794;19.126;2023-04-25T03:09:21;18.50;42.10
7700;DHT22;3892;47.794;19.126;2023-04-25T03:11:49;18.40;42.20
7700;DHT22;3892;47.794;19.126;2023-04-25T03:14:18;18.50;42.20
7700;DHT22;3892;47.794;19.126;2023-04-25T03:16:46;18.40;42.30
7700;DHT22;3892;47.794;19.126;2023-04-25T03:19:14;18.40;42.40
7700;DHT22;3892;47.794;19.126;2023-04-25T03:21:44;18.40;42.30
7700;DHT22;3892;47.794;19.126;2023-04-25T03:24:13;18.50;42.70
7700;DHT22;3892;47.794;19.126;2023-04-25T03:26:41;18.50;42.60
7700;DHT22;3892;47.794;19.126;2023-04-25T03:29:10;18.50;42.70
7700;DHT22;3892;47.794;19.126;2023-04-25T03:31:38;18.50;42.70
7700;DHT22;3892;47.794;19.126;2023-04-25T03:34:06;18.40;42.60
7700;DHT22;3892;47.794;19.126;2023-04-25T03:36:35;18.40;42.70
7700;DHT22;3892;47.794;19.126;2023-04-25T03:39:03;18.40;42.70
7700;DHT22;3892;47.794;19.126;2023-04-25T03:41:34;18.40;42.70
7700;DHT22;3892;47.794;19.126;2023-04-25T03:44:02;18.40;42.60
7700;DHT22;3892;47.794;19.126;2023-04-25T03:46:30;18.40;42.50
7700;DHT22;3892;47.794;19.126;2023-04-25T03:48:58;18.40;42.30
7700;DHT22;3892;47.794;19.126;2023-04-25T03:51:27;18.40;42.20
7700;DHT22;3892;47.794;19.126;2023-04-25T03:53:55;18.30;42.00
7700;DHT22;3892;47.794;19.126;2023-04-25T03:56:23;18.30;42.40
7700;DHT22;3892;47.794;19.126;2023-04-25T03:58:52;18.30;42.50
7700;DHT22;3892;47.794;19.126;2023-04-25T04:01:20;18.20;42.70
7700;DHT22;3892;47.794;19.126;2023-04-25T04:03:48;18.30;43.60
7700;DHT22;3892;47.794;19.126;2023-04-25T04:06:16;18.20;43.00
7700;DHT22;3892;47.794;19.126;2023-04-25T04:08:45;18.20;43.00
7700;DHT22;3892;47.794;19.126;2023-04-25T04:11:13;18.20;43.20
7700;DHT22;3892;47.794;19.126;2023-04-25T04:13:41;18.20;43.60
7700;DHT22;3892;47.794;19.126;2023-04-25T04:16:11;18.20;43.50
7700;DHT22;3892;47.794;19.126;2023-04-25T04:18:39;18.20;43.60
7700;DHT22;3892;47.794;19.126;2023-04-25T04:21:07;18.10;43.60
7700;DHT22;3892;47.794;19.126;2023-04-25T04:23:35;18.00;43.80
7700;DHT22;3892;47.794;19.126;2023-04-25T04:26:05;18.00;43.90
7700;DHT22;3892;47.794;19.126;2023-04-25T04:28:33;17.90;44.10
7700;DHT22;3892;47.794;19.126;2023-04-25T04:31:02;18.00;44.20
7700;DHT22;3892;47.794;19.126;2023-04-25T04:33:32;18.00;44.20
7700;DHT22;3892;47.794;19.126;2023-04-25T04:36:00;18.00;44.20
7700;DHT22;3892;47.794;19.126;2023-04-25T04:38:29;18.00;44.40
7700;DHT22;3892;47.794;19.126;2023-04-25T04:40:57;17.90;44.40
7700;DHT22;3892;47.794;19.126;2023-04-25T04:43:25;17.90;44.60
7700;DHT22;3892;47.794;19.126;2023-04-25T04:45:55;17.90;44.50
7700;DHT22;3892;47.794;19.126;2023-04-25T04:48:24;17.90;44.50
7700;DHT22;3892;47.794;19.126;2023-04-25T04:50:53;17.90;44.60
7700;DHT22;3892;47.794;19.126;2023-04-25T04:53:21;17.80;44.60
7700;DHT22;3892;47.794;19.126;2023-04-25T04:55:49;17.80;44.70
7700;DHT22;3892;47.794;19.126;2023-04-25T04:58:17;17.80;44.80
7700;DHT22;3892;47.794;19.126;2023-04-25T05:00:45;17.80;44.80
7700;DHT22;3892;47.794;19.126;2023-04-25T05:03:14;17.80;44.80
7700;DHT22;3892;47.794;19.126;2023-04-25T05:05:42;17.70;44.80
7700;DHT22;3892;47.794;19.126;2023-04-25T05:08:11;17.70;44.80
7700;DHT22;3892;47.794;19.126;2023-04-25T05:10:39;17.50;44.90
7700;DHT22;3892;47.794;19.126;2023-04-25T05:13:08;17.60;45.10
7700;DHT22;3892;47.794;19.126;2023-04-25T05:15:36;17.60;45.00
7700;DHT22;3892;47.794;19.126;2023-04-25T05:18:04;17.60;45.00
7700;DHT22;3892;47.794;19.126;2023-04-25T05:20:33;17.60;45.00
7700;DHT22;3892;47.794;19.126;2023-04-25T05:23:01;17.50;44.80
7700;DHT22;3892;47.794;19.126;2023-04-25T05:25:31;17.60;45.20
7700;DHT22;3892;47.794;19.126;2023-04-25T05:27:59;17.60;45.10
7700;DHT22;3892;47.794;19.126;2023-04-25T05:30:27;17.70;45.20
7700;DHT22;3892;47.794;19.126;2023-04-25T05:32:55;17.60;44.90
7700;DHT22;3892;47.794;19.126;2023-04-25T05:35:23;17.60;45.10
7700;DHT22;3892;47.794;19.126;2023-04-25T05:37:51;17.60;45.00
7700;DHT22;3892;47.794;19.126;2023-04-25T05:40:19;17.60;45.30
7700;DHT22;3892;47.794;19.126;2023-04-25T05:42:48;17.60;45.50
7700;DHT22;3892;47.794;19.126;2023-04-25T05:45:17;17.50;45.60
7700;DHT22;3892;47.794;19.126;2023-04-25T05:47:45;17.50;45.60
7700;DHT22;3892;47.794;19.126;2023-04-25T05:50:13;17.60;45.70
7700;DHT22;3892;47.794;19.126;2023-04-25T05:52:41;17.50;45.20
7700;DHT22;3892;47.794;19.126;2023-04-25T05:55:09;17.50;45.20
7700;DHT22;3892;47.794;19.126;2023-04-25T05:57:37;17.50;45.20
7700;DHT22;3892;47.794;19.126;2023-04-25T06:00:11;17.60;45.10
7700;DHT22;3892;47.794;19.126;2023-04-25T06:02:39;17.60;45.10
7700;DHT22;3892;47.794;19.126;2023-04-25T06:05:08;17.70;45.20
7700;DHT22;3892;47.794;19.126;2023-04-25T06:07:36;17.60;44.90
7700;DHT22;3892;47.794;19.126;2023-04-25T06:10:05;17.60;44.80
7700;DHT22;3892;47.794;19.126;2023-04-25T06:12:34;17.60;45.10
7700;DHT22;3892;47.794;19.126;2023-04-25T06:15:02;17.50;44.90
7700;DHT22;3892;47.794;19.126;2023-04-25T06:17:33;17.40;45.00
7700;DHT22;3892;47.794;19.126;2023-04-25T06:20:02;17.40;45.20
7700;DHT22;3892;47.794;19.126;2023-04-25T06:22:32;17.40;45.40
7700;DHT22;3892;47.794;19.126;2023-04-25T06:25:00;17.40;45.50
7700;DHT22;3892;47.794;19.126;2023-04-25T06:27:30;17.30;45.50
7700;DHT22;3892;47.794;19.126;2023-04-25T06:29:58;17.40;45.70
7700;DHT22;3892;47.794;19.126;2023-04-25T06:32:26;17.40;45.70
7700;DHT22;3892;47.794;19.126;2023-04-25T06:34:57;17.30;45.70
7700;DHT22;3892;47.794;19.126;2023-04-25T06:37:26;17.40;45.80
7700;DHT22;3892;47.794;19.126;2023-04-25T06:39:54;17.50;45.90
7700;DHT22;3892;47.794;19.126;2023-04-25T06:42:22;17.50;45.80
7700;DHT22;3892;47.794;19.126;2023-04-25T06:44:50;17.50;45.80
7700;DHT22;3892;47.794;19.126;2023-04-25T06:47:18;17.50;45.90
7700;DHT22;3892;47.794;19.126;2023-04-25T06:49:46;17.50;46.00
7700;DHT22;3892;47.794;19.126;2023-04-25T06:52:15;17.60;46.00
7700;DHT22;3892;47.794;19.126;2023-04-25T06:54:44;17.50;46.00
7700;DHT22;3892;47.794;19.126;2023-04-25T06:57:13;17.50;46.00
7700;DHT22;3892;47.794;19.126;2023-04-25T06:59:41;17.50;45.90
7700;DHT22;3892;47.794;19.126;2023-04-25T07:02:09;17.50;46.10
7700;DHT22;3892;47.794;19.126;2023-04-25T07:04:37;17.50;46.10
7700;DHT22;3892;47.794;19.126;2023-04-25T07:07:05;17.40;46.20
7700;DHT22;3892;47.794;19.126;2023-04-25T07:09:35;17.40;46.30
7700;DHT22;3892;47.794;19.126;2023-04-25T07:12:03;17.50;46.70
7700;DHT22;3892;47.794;19.126;2023-04-25T07:14:32;17.50;46.70
7700;DHT22;3892;47.794;19.126;2023-04-25T07:17:00;17.60;46.90
7700;DHT22;3892;47.794;19.126;2023-04-25T07:19:28;17.60;46.80
7700;DHT22;3892;47.794;19.126;2023-04-25T07:21:56;17.70;46.80
7700;DHT22;3892;47.794;19.126;2023-04-25T07:24:24;17.80;47.10
7700;DHT22;3892;47.794;19.126;2023-04-25T07:26:54;17.90;47.20
7700;DHT22;3892;47.794;19.126;2023-04-25T07:29:22;17.90;47.50
7700;DHT22;3892;47.794;19.126;2023-04-25T07:31:50;18.00;46.90
7700;DHT22;3892;47.794;19.126;2023-04-25T07:34:18;18.00;50.20
7700;DHT22;3892;47.794;19.126;2023-04-25T07:36:46;18.10;48.30
7700;DHT22;3892;47.794;19.126;2023-04-25T07:39:14;18.20;47.50
7700;DHT22;3892;47.794;19.126;2023-04-25T07:41:42;18.30;47.20
7700;DHT22;3892;47.794;19.126;2023-04-25T07:44:12;18.40;46.90
7700;DHT22;3892;47.794;19.126;2023-04-25T07:46:40;18.40;46.50
7700;DHT22;3892;47.794;19.126;2023-04-25T07:49:08;18.30;46.10
7700;DHT22;3892;47.794;19.126;2023-04-25T07:51:37;18.40;46.20
7700;DHT22;3892;47.794;19.126;2023-04-25T07:54:05;18.40;46.40
7700;DHT22;3892;47.794;19.126;2023-04-25T07:56:33;18.50;46.60
7700;DHT22;3892;47.794;19.126;2023-04-25T07:59:07;18.40;46.00
7700;DHT22;3892;47.794;19.126;2023-04-25T08:01:36;18.50;46.20
7700;DHT22;3892;47.794;19.126;2023-04-25T08:04:04;18.50;46.10
7700;DHT22;3892;47.794;19.126;2023-04-25T08:06:33;18.50;46.00
7700;DHT22;3892;47.794;19.126;2023-04-25T08:09:01;18.60;46.70
7700;DHT22;3892;47.794;19.126;2023-04-25T08:11:30;18.60;46.40
7700;DHT22;3892;47.794;19.126;2023-04-25T08:13:58;18.60;45.70
7700;DHT22;3892;47.794;19.126;2023-04-25T08:16:26;18.60;45.90
7700;DHT22;3892;47.794;19.126;2023-04-25T08:18:55;18.60;46.00
7700;DHT22;3892;47.794;19.126;2023-04-25T08:21:23;18.70;46.30
7700;DHT22;3892;47.794;19.126;2023-04-25T08:23:53;18.80;45.80
7700;DHT22;3892;47.794;19.126;2023-04-25T08:26:21;18.90;45.90
7700;DHT22;3892;47.794;19.126;2023-04-25T08:28:49;18.90;45.40
7700;DHT22;3892;47.794;19.126;2023-04-25T08:31:18;19.00;45.60
7700;DHT22;3892;47.794;19.126;2023-04-25T08:33:46;19.10;45.40
7700;DHT22;3892;47.794;19.126;2023-04-25T08:36:16;19.10;45.80
7700;DHT22;3892;47.794;19.126;2023-04-25T08:38:50;19.20;45.10
7700;DHT22;3892;47.794;19.126;2023-04-25T08:41:20;19.20;44.60
7700;DHT22;3892;47.794;19.126;2023-04-25T08:43:49;19.20;44.40
7700;DHT22;3892;47.794;19.126;2023-04-25T08:46:18;19.30;44.50
7700;DHT22;3892;47.794;19.126;2023-04-25T08:48:46;19.40;44.10
7700;DHT22;3892;47.794;19.126;2023-04-25T08:51:23;19.50;44.80
7700;DHT22;3892;47.794;19.126;2023-04-25T08:53:52;19.60;44.60
7700;DHT22;3892;47.794;19.126;2023-04-25T08:56:23;19.70;45.00
7700;DHT22;3892;47.794;19.126;2023-04-25T08:58:51;19.80;43.80
7700;DHT22;3892;47.794;19.126;2023-04-25T09:01:20;19.80;42.60
7700;DHT22;3892;47.794;19.126;2023-04-25T09:03:48;19.80;42.40
7700;DHT22;3892;47.794;19.126;2023-04-25T09:06:19;19.90;41.20
7700;DHT22;3892;47.794;19.126;2023-04-25T09:08:50;20.00;42.00
7700;DHT22;3892;47.794;19.126;2023-04-25T09:11:18;20.00;42.40
7700;DHT22;3892;47.794;19.126;2023-04-25T09:13:47;20.10;42.20
7700;DHT22;3892;47.794;19.126;2023-04-25T09:16:15;20.20;42.50
7700;DHT22;3892;47.794;19.126;2023-04-25T09:18:47;20.20;40.60
7700;DHT22;3892;47.794;19.126;2023-04-25T09:21:17;20.20;40.20
7700;DHT22;3892;47.794;19.126;2023-04-25T09:23:49;20.30;40.40
7700;DHT22;3892;47.794;19.126;2023-04-25T09:26:20;20.30;40.00
7700;DHT22;3892;47.794;19.126;2023-04-25T09:28:48;20.30;39.50
7700;DHT22;3892;47.794;19.126;2023-04-25T09:31:21;20.10;38.20
7700;DHT22;3892;47.794;19.126;2023-04-25T09:33:58;20.10;37.90
7700;DHT22;3892;47.794;19.126;2023-04-25T09:36:29;20.10;38.50
7700;DHT22;3892;47.794;19.126;2023-04-25T09:38:59;20.10;38.80
7700;DHT22;3892;47.794;19.126;2023-04-25T09:41:27;20.00;38.60
7700;DHT22;3892;47.794;19.126;2023-04-25T09:43:57;20.10;38.50
7700;DHT22;3892;47.794;19.126;2023-04-25T09:46:32;20.00;38.30
7700;DHT22;3892;47.794;19.126;2023-04-25T09:49:06;20.00;38.80
7700;DHT22;3892;47.794;19.126;2023-04-25T09:51:36;20.10;38.80
7700;DHT22;3892;47.794;19.126;2023-04-25T09:54:04;20.10;39.20
7700;DHT22;3892;47.794;19.126;2023-04-25T09:56:36;20.20;38.60
7700;DHT22;3892;47.794;19.126;2023-04-25T09:59:05;20.30;39.10
7700;DHT22;3892;47.794;19.126;2023-04-25T10:01:35;20.20;37.50
7700;DHT22;3892;47.794;19.126;2023-04-25T10:04:05;20.20;38.50
7700;DHT22;3892;47.794;19.126;2023-04-25T10:06:38;20.20;37.70
7700;DHT22;3892;47.794;19.126;2023-04-25T10:09:09;20.20;37.40
7700;DHT22;3892;47.794;19.126;2023-04-25T10:11:39;20.20;37.30
7700;DHT22;3892;47.794;19.126;2023-04-25T10:14:08;20.30;37.60
7700;DHT22;3892;47.794;19.126;2023-04-25T10:16:40;20.40;37.90
7700;DHT22;3892;47.794;19.126;2023-04-25T10:19:09;20.30;36.90
7700;DHT22;3892;47.794;19.126;2023-04-25T10:21:44;20.40;36.70
7700;DHT22;3892;47.794;19.126;2023-04-25T10:24:14;20.50;36.80
7700;DHT22;3892;47.794;19.126;2023-04-25T10:26:42;20.50;36.70
7700;DHT22;3892;47.794;19.126;2023-04-25T10:29:11;20.50;37.60
7700;DHT22;3892;47.794;19.126;2023-04-25T10:31:45;20.50;36.60
7700;DHT22;3892;47.794;19.126;2023-04-25T10:34:13;20.50;36.60
7700;DHT22;3892;47.794;19.126;2023-04-25T10:36:49;20.50;36.40
7700;DHT22;3892;47.794;19.126;2023-04-25T10:39:23;20.50;36.20
7700;DHT22;3892;47.794;19.126;2023-04-25T10:41:56;20.50;36.20
7700;DHT22;3892;47.794;19.126;2023-04-25T10:44:26;20.50;36.20
7700;DHT22;3892;47.794;19.126;2023-04-25T10:46:55;20.50;36.40
7700;DHT22;3892;47.794;19.126;2023-04-25T10:49:32;20.50;36.10
7700;DHT22;3892;47.794;19.126;2023-04-25T10:52:25;20.60;36.60
7700;DHT22;3892;47.794;19.126;2023-04-25T10:54:56;20.50;36.30
7700;DHT22;3892;47.794;19.126;2023-04-25T10:57:31;20.50;35.90
7700;DHT22;3892;47.794;19.126;2023-04-25T11:00:04;20.30;35.50
7700;DHT22;3892;47.794;19.126;2023-04-25T11:02:37;20.40;35.10
7700;DHT22;3892;47.794;19.126;2023-04-25T11:05:06;20.20;35.00
7700;DHT22;3892;47.794;19.126;2023-04-25T11:07:38;20.00;34.70
7700;DHT22;3892;47.794;19.126;2023-04-25T11:10:09;20.10;35.60
7700;DHT22;3892;47.794;19.126;2023-04-25T11:12:37;20.20;36.20
7700;DHT22;3892;47.794;19.126;2023-04-25T11:15:06;20.20;35.50
7700;DHT22;3892;47.794;19.126;2023-04-25T11:17:35;20.30;35.90
7700;DHT22;3892;47.794;19.126;2023-04-25T11:20:03;20.40;35.20
7700;DHT22;3892;47.794;19.126;2023-04-25T11:22:40;20.50;35.50
7700;DHT22;3892;47.794;19.126;2023-04-25T11:25:09;20.50;35.50
7700;DHT22;3892;47.794;19.126;2023-04-25T11:27:39;20.70;35.20
7700;DHT22;3892;47.794;19.126;2023-04-25T11:30:18;20.90;35.40
7700;DHT22;3892;47.794;19.126;2023-04-25T11:32:46;21.10;35.90
7700;DHT22;3892;47.794;19.126;2023-04-25T11:35:14;21.40;35.70
7700;DHT22;3892;47.794;19.126;2023-04-25T11:37:44;21.60;35.30
7700;DHT22;3892;47.794;19.126;2023-04-25T11:40:12;21.80;35.90
7700;DHT22;3892;47.794;19.126;2023-04-25T11:42:45;22.00;35.70
7700;DHT22;3892;47.794;19.126;2023-04-25T11:45:14;22.00;33.80
7700;DHT22;3892;47.794;19.126;2023-04-25T11:47:42;22.00;33.20
7700;DHT22;3892;47.794;19.126;2023-04-25T11:50:10;22.10;34.40
7700;DHT22;3892;47.794;19.126;2023-04-25T11:52:39;22.10;34.10
7700;DHT22;3892;47.794;19.126;2023-04-25T11:55:12;22.10;33.90
7700;DHT22;3892;47.794;19.126;2023-04-25T11:57:41;22.10;33.00
7700;DHT22;3892;47.794;19.126;2023-04-25T12:00:11;22.10;33.00
7700;DHT22;3892;47.794;19.126;2023-04-25T12:02:42;22.00;32.90
7700;DHT22;3892;47.794;19.126;2023-04-25T12:05:12;22.00;33.40
7700;DHT22;3892;47.794;19.126;2023-04-25T12:07:47;21.90;32.90
7700;DHT22;3892;47.794;19.126;2023-04-25T12:10:18;21.90;32.90
7700;DHT22;3892;47.794;19.126;2023-04-25T12:12:47;21.90;33.20
7700;DHT22;3892;47.794;19.126;2023-04-25T12:15:17;21.90;33.40
7700;DHT22;3892;47.794;19.126;2023-04-25T12:17:47;21.80;33.40
7700;DHT22;3892;47.794;19.126;2023-04-25T12:20:17;21.90;34.30
7700;DHT22;3892;47.794;19.126;2023-04-25T12:22:48;21.90;33.50
7700;DHT22;3892;47.794;19.126;2023-04-25T12:25:36;21.80;32.00
7700;DHT22;3892;47.794;19.126;2023-04-25T12:28:12;21.70;32.00
7700;DHT22;3892;47.794;19.126;2023-04-25T12:30:54;21.70;31.70
7700;DHT22;3892;47.794;19.126;2023-04-25T12:33:23;21.50;31.30
7700;DHT22;3892;47.794;19.126;2023-04-25T12:35:51;21.50;32.30
7700;DHT22;3892;47.794;19.126;2023-04-25T12:38:24;21.40;33.60
7700;DHT22;3892;47.794;19.126;2023-04-25T12:40:54;21.40;33.90
7700;DHT22;3892;47.794;19.126;2023-04-25T12:43:22;21.40;33.30
7700;DHT22;3892;47.794;19.126;2023-04-25T12:45:51;21.40;34.00
7700;DHT22;3892;47.794;19.126;2023-04-25T12:48:19;21.40;34.00
7700;DHT22;3892;47.794;19.126;2023-04-25T12:50:48;21.50;33.80
7700;DHT22;3892;47.794;19.126;2023-04-25T12:53:16;21.60;33.90
7700;DHT22;3892;47.794;19.126;2023-04-25T12:55:44;21.70;33.50
7700;DHT22;3892;47.794;19.126;2023-04-25T12:58:15;21.90;33.70
7700;DHT22;3892;47.794;19.126;2023-04-25T13:00:44;22.00;33.00
7700;DHT22;3892;47.794;19.126;2023-04-25T13:03:13;22.00;33.00
7700;DHT22;3892;47.794;19.126;2023-04-25T13:05:42;22.00;32.70
7700;DHT22;3892;47.794;19.126;2023-04-25T13:08:10;22.20;32.10
7700;DHT22;3892;47.794;19.126;2023-04-25T13:10:38;22.30;31.90
7700;DHT22;3892;47.794;19.126;2023-04-25T13:13:06;22.40;32.20
7700;DHT22;3892;47.794;19.126;2023-04-25T13:15:36;22.50;31.90
7700;DHT22;3892;47.794;19.126;2023-04-25T13:18:04;22.70;32.30
7700;DHT22;3892;47.794;19.126;2023-04-25T13:20:33;22.90;31.80
7700;DHT22;3892;47.794;19.126;2023-04-25T13:23:01;22.80;30.40
7700;DHT22;3892;47.794;19.126;2023-04-25T13:25:29;23.00;30.70
7700;DHT22;3892;47.794;19.126;2023-04-25T13:27:58;23.10;30.70
7700;DHT22;3892;47.794;19.126;2023-04-25T13:30:26;23.20;30.60
7700;DHT22;3892;47.794;19.126;2023-04-25T13:32:55;23.30;30.50
7700;DHT22;3892;47.794;19.126;2023-04-25T13:35:25;23.40;31.10
7700;DHT22;3892;47.794;19.126;2023-04-25T13:37:53;23.60;31.20
7700;DHT22;3892;47.794;19.126;2023-04-25T13:40:21;23.70;31.80
7700;DHT22;3892;47.794;19.126;2023-04-25T13:42:50;23.90;31.20
7700;DHT22;3892;47.794;19.126;2023-04-25T13:45:19;23.90;30.60
7700;DHT22;3892;47.794;19.126;2023-04-25T13:47:47;24.00;30.00
7700;DHT22;3892;47.794;19.126;2023-04-25T13:50:17;24.10;29.90
7700;DHT22;3892;47.794;19.126;2023-04-25T13:52:45;24.20;30.10
7700;DHT22;3892;47.794;19.126;2023-04-25T13:55:13;24.30;30.80
7700;DHT22;3892;47.794;19.126;2023-04-25T13:57:41;24.40;31.40
7700;DHT22;3892;47.794;19.126;2023-04-25T14:00:11;24.50;31.60
7700;DHT22;3892;47.794;19.126;2023-04-25T14:02:39;24.60;31.90
7700;DHT22;3892;47.794;19.126;2023-04-25T14:05:08;24.70;31.90
7700;DHT22;3892;47.794;19.126;2023-04-25T14:07:38;24.80;31.00
7700;DHT22;3892;47.794;19.126;2023-04-25T14:10:06;24.70;29.90
7700;DHT22;3892;47.794;19.126;2023-04-25T14:12:34;24.80;30.00
7700;DHT22;3892;47.794;19.126;2023-04-25T14:15:03;24.80;30.50
7700;DHT22;3892;47.794;19.126;2023-04-25T14:17:31;24.90;29.90
7700;DHT22;3892;47.794;19.126;2023-04-25T14:20:00;24.90;29.60
7700;DHT22;3892;47.794;19.126;2023-04-25T14:22:28;24.90;29.10
7700;DHT22;3892;47.794;19.126;2023-04-25T14:24:58;24.80;29.30
7700;DHT22;3892;47.794;19.126;2023-04-25T14:27:26;25.00;29.70
7700;DHT22;3892;47.794;19.126;2023-04-25T14:29:54;25.00;29.10
7700;DHT22;3892;47.794;19.126;2023-04-25T14:32:23;25.00;28.70
7700;DHT22;3892;47.794;19.126;2023-04-25T14:34:51;25.10;28.90
7700;DHT22;3892;47.794;19.126;2023-04-25T14:37:19;25.10;29.00
7700;DHT22;3892;47.794;19.126;2023-04-25T14:39:47;25.20;29.60
7700;DHT22;3892;47.794;19.126;2023-04-25T14:42:17;25.10;29.10
7700;DHT22;3892;47.794;19.126;2023-04-25T14:44:45;25.10;28.90
7700;DHT22;3892;47.794;19.126;2023-04-25T14:47:13;25.10;28.90
7700;DHT22;3892;47.794;19.126;2023-04-25T14:49:42;25.20;29.00
7700;DHT22;3892;47.794;19.126;2023-04-25T14:52:10;25.30;29.10
7700;DHT22;3892;47.794;19.126;2023-04-25T14:54:38;25.40;28.90
7700;DHT22;3892;47.794;19.126;2023-04-25T14:57:06;25.40;28.60
7700;DHT22;3892;47.794;19.126;2023-04-25T14:59:36;25.10;28.20
7700;DHT22;3892;47.794;19.126;2023-04-25T15:02:04;25.00;29.00
7700;DHT22;3892;47.794;19.126;2023-04-25T15:04:32;25.00;29.20
7700;DHT22;3892;47.794;19.126;2023-04-25T15:07:00;25.00;28.80
7700;DHT22;3892;47.794;19.126;2023-04-25T15:09:29;25.00;29.10
7700;DHT22;3892;47.794;19.126;2023-04-25T15:11:58;25.00;28.80
7700;DHT22;3892;47.794;19.126;2023-04-25T15:14:26;25.00;28.40
7700;DHT22;3892;47.794;19.126;2023-04-25T15:16:55;25.10;28.50
7700;DHT22;3892;47.794;19.126;2023-04-25T15:19:23;25.10;27.90
7700;DHT22;3892;47.794;19.126;2023-04-25T15:21:52;25.10;27.70
7700;DHT22;3892;47.794;19.126;2023-04-25T15:24:20;25.20;28.00
7700;DHT22;3892;47.794;19.126;2023-04-25T15:26:48;25.30;28.90
7700;DHT22;3892;47.794;19.126;2023-04-25T15:29:17;25.30;27.60
7700;DHT22;3892;47.794;19.126;2023-04-25T15:31:45;25.10;26.70
7700;DHT22;3892;47.794;19.126;2023-04-25T15:34:15;24.90;26.50
7700;DHT22;3892;47.794;19.126;2023-04-25T15:36:43;24.80;27.00
7700;DHT22;3892;47.794;19.126;2023-04-25T15:39:11;24.70;26.80
7700;DHT22;3892;47.794;19.126;2023-04-25T15:41:40;24.50;26.50
7700;DHT22;3892;47.794;19.126;2023-04-25T15:44:08;24.40;26.70
7700;DHT22;3892;47.794;19.126;2023-04-25T15:46:37;24.40;26.70
7700;DHT22;3892;47.794;19.126;2023-04-25T15:49:05;24.40;27.20
7700;DHT22;3892;47.794;19.126;2023-04-25T15:51:34;24.30;26.90
7700;DHT22;3892;47.794;19.126;2023-04-25T15:54:02;24.40;27.50
7700;DHT22;3892;47.794;19.126;2023-04-25T15:56:31;24.30;27.10